Time;durP1;ratioP1;P1;durP2;ratioP2;P2;SDS_P1;SDS_P2;PMS_P1;PMS_P2;Temp;Humidity;BMP_temperature;BMP_pressure;BME280_temperature;BME280_humidity;BME280_pressure;Samples;Min_cycle;Max_cycle;Signal;HPM_P1;HPM_P2
2022/10/08 00:02:01;;;;;;;13.82;11.45;;;10.40;99.90;;;;;;6159347;23;20017;-82
2022/10/08 00:04:31;;;;;;;14.13;10.70;;;10.40;99.90;;;;;;6183865;23;20032;-82
2022/10/08 00:07:31;;;;;;;38.03;15.25;;;10.40;99.90;;;;;;6167936;23;20013;-82
2022/10/08 00:09:58;;;;;;;60.38;17.20;;;10.40;99.90;;;;;;6184282;23;20013;-82
2022/10/08 00:12:26;;;;;;;60.92;17.27;;;10.40;99.90;;;;;;6185689;23;20058;-82
2022/10/08 00:14:53;;;;;;;50.63;17.98;;;10.30;99.90;;;;;;6193100;23;20009;-82
2022/10/08 00:17:21;;;;;;;20.13;13.68;;;10.40;99.90;;;;;;6184154;23;20028;-82
2022/10/08 00:19:48;;;;;;;19.35;10.57;;;10.30;99.90;;;;;;6190425;23;20024;-82
2022/10/08 00:22:15;;;;;;;28.45;14.02;;;10.30;99.90;;;;;;6158849;23;20524;-83
2022/10/08 00:24:45;;;;;;;14.52;11.90;;;10.30;99.90;;;;;;6185366;23;20036;-83
2022/10/08 00:27:12;;;;;;;16.95;11.35;;;10.30;99.90;;;;;;6191149;23;20036;-83
2022/10/08 00:29:40;;;;;;;32.58;11.00;;;10.30;99.90;;;;;;6194061;23;20024;-83
2022/10/08 00:32:07;;;;;;;40.00;16.17;;;10.20;99.90;;;;;;6187966;23;20341;-83
2022/10/08 00:34:35;;;;;;;16.98;9.85;;;10.20;99.90;;;;;;6196146;23;20012;-83
2022/10/08 00:37:09;;;;;;;11.98;10.25;;;10.20;99.90;;;;;;6193911;23;20341;-83
2022/10/08 00:39:36;;;;;;;16.10;9.57;;;10.10;99.90;;;;;;6158338;23;20437;-83
2022/10/08 00:42:04;;;;;;;30.83;14.77;;;10.10;99.90;;;;;;6182919;23;20021;-83
2022/10/08 00:44:52;;;;;;;18.35;11.77;;;10.20;99.90;;;;;;6187432;23;20349;-83
2022/10/08 00:47:31;;;;;;;15.25;9.73;;;10.20;99.90;;;;;;6183408;23;20024;-83
2022/10/08 00:50:16;;;;;;;13.50;9.70;;;10.10;99.90;;;;;;6193895;23;20020;-83
2022/10/08 00:52:55;;;;;;;54.08;18.23;;;10.10;99.90;;;;;;6186154;23;20028;-84
2022/10/08 00:55:26;;;;;;;17.70;12.45;;;10.00;99.90;;;;;;6192277;23;20020;-83
2022/10/08 00:58:01;;;;;;;18.30;9.07;;;10.00;99.90;;;;;;6194978;23;20017;-83
2022/10/08 01:00:29;;;;;;;22.90;12.98;;;10.00;99.90;;;;;;6186029;23;20029;-83
2022/10/08 01:02:57;;;;;;;42.20;16.95;;;10.00;99.90;;;;;;6183062;23;20017;-83
2022/10/08 01:05:56;;;;;;;45.97;15.52;;;10.00;99.90;;;;;;6193251;23;20017;-83
2022/10/08 01:08:33;;;;;;;43.33;15.18;;;10.00;99.90;;;;;;6158291;23;20353;-83
2022/10/08 01:11:18;;;;;;;32.78;15.15;;;10.00;99.90;;;;;;6133482;23;20028;-83
2022/10/08 01:13:52;;;;;;;73.78;18.98;;;10.00;99.90;;;;;;6195246;23;20024;-83
2022/10/08 01:16:47;;;;;;;40.03;15.18;;;10.00;99.90;;;;;;6158107;23;20033;-83
2022/10/08 01:19:33;;;;;;;45.70;17.52;;;9.90;99.90;;;;;;6190630;23;20025;-83
2022/10/08 01:22:31;;;;;;;54.38;14.73;;;9.90;99.90;;;;;;6158452;23;20024;-83
2022/10/08 01:25:33;;;;;;;26.05;10.68;;;9.90;99.90;;;;;;6157451;23;20333;-83
2022/10/08 01:28:13;;;;;;;26.30;8.98;;;9.90;99.90;;;;;;6157854;23;20036;-83
2022/10/08 01:30:51;;;;;;;38.58;14.05;;;9.90;99.90;;;;;;6193241;23;20013;-84
2022/10/08 01:33:27;;;;;;;35.40;15.15;;;10.10;99.90;;;;;;6142285;23;20024;-83
2022/10/08 01:37:09;;;;;;;15.05;9.85;;;9.90;99.90;;;;;;6187745;23;20352;-84
2022/10/08 01:39:39;;;;;;;23.17;10.27;;;9.90;99.90;;;;;;6188934;23;20021;-83
2022/10/08 01:42:09;;;;;;;21.65;11.30;;;9.90;99.90;;;;;;6182975;23;20341;-82
2022/10/08 01:44:42;;;;;;;7.68;6.85;;;9.90;99.90;;;;;;6185315;23;20360;-84
2022/10/08 01:47:14;;;;;;;41.38;14.60;;;9.90;99.90;;;;;;6158042;23;20511;-84
2022/10/08 01:49:54;;;;;;;42.83;11.77;;;9.80;99.90;;;;;;6194700;23;20013;-83
2022/10/08 01:52:30;;;;;;;51.58;13.90;;;9.80;99.90;;;;;;6185923;23;20051;-83
2022/10/08 01:55:02;;;;;;;21.17;9.95;;;9.80;99.90;;;;;;6167405;23;20433;-84
2022/10/08 01:57:33;;;;;;;24.13;8.65;;;9.80;99.90;;;;;;6184552;23;20021;-84
2022/10/08 02:00:10;;;;;;;13.73;5.90;;;9.80;99.90;;;;;;6157572;23;20017;-83
2022/10/08 02:02:41;;;;;;;6.93;6.28;;;9.60;99.90;;;;;;6182115;23;20013;-83
2022/10/08 02:05:10;;;;;;;11.68;7.03;;;9.70;99.90;;;;;;6182553;23;20445;-84
2022/10/08 02:07:41;;;;;;;8.27;6.78;;;9.60;99.90;;;;;;6188960;23;20025;-84
2022/10/08 02:10:15;;;;;;;10.70;6.63;;;9.60;99.90;;;;;;6193655;23;20020;-83
2022/10/08 02:12:43;;;;;;;7.22;6.53;;;9.50;99.90;;;;;;6159470;23;20025;-83
2022/10/08 02:15:21;;;;;;;6.72;4.68;;;9.60;99.90;;;;;;6191131;23;20032;-84
2022/10/08 02:18:06;;;;;;;7.05;6.43;;;9.60;99.90;;;;;;6158454;23;20025;-84
2022/10/08 02:20:58;;;;;;;11.77;7.53;;;9.50;99.90;;;;;;6159220;23;20017;-84
2022/10/08 02:23:38;;;;;;;7.63;6.55;;;9.50;99.90;;;;;;6189437;23;20021;-83
2022/10/08 02:26:30;;;;;;;7.82;6.30;;;9.50;99.90;;;;;;6192791;23;20028;-83
2022/10/08 02:29:00;;;;;;;14.68;8.00;;;9.30;99.90;;;;;;6184899;23;20021;-84
2022/10/08 02:31:40;;;;;;;5.72;5.32;;;9.30;99.90;;;;;;6157641;23;20348;-84
2022/10/08 02:34:24;;;;;;;8.77;5.43;;;9.20;99.90;;;;;;6194799;23;20009;-84
2022/10/08 02:37:37;;;;;;;6.90;6.30;;;9.20;99.90;;;;;;6185169;23;20349;-84
2022/10/08 02:40:11;;;;;;;5.78;5.32;;;9.10;99.90;;;;;;6156640;23;20349;-83
2022/10/08 02:42:45;;;;;;;21.55;6.10;;;9.10;99.90;;;;;;6158197;23;20021;-83
2022/10/08 02:45:19;;;;;;;7.90;5.13;;;9.00;99.90;;;;;;6184054;23;20017;-83
2022/10/08 02:47:52;;;;;;;6.28;4.35;;;9.00;99.90;;;;;;6191705;23;20017;-84
2022/10/08 02:50:23;;;;;;;5.45;5.05;;;9.00;99.90;;;;;;6194900;23;20040;-84
2022/10/08 02:52:51;;;;;;;12.40;7.88;;;8.90;99.90;;;;;;6186802;23;20037;-84
2022/10/08 02:55:26;;;;;;;5.63;5.15;;;8.90;99.90;;;;;;6191573;23;20353;-84
2022/10/08 02:58:05;;;;;;;4.97;4.57;;;8.90;99.90;;;;;;6135171;23;20025;-84
2022/10/08 03:00:38;;;;;;;5.93;4.88;;;8.80;99.90;;;;;;6161860;23;20017;-84
2022/10/08 03:03:12;;;;;;;7.20;6.43;;;8.80;99.90;;;;;;6194069;23;20017;-84
2022/10/08 03:05:51;;;;;;;4.78;4.38;;;8.80;99.90;;;;;;6160602;23;20013;-84
2022/10/08 03:08:20;;;;;;;5.68;5.18;;;8.80;99.90;;;;;;6135074;23;20017;-83
2022/10/08 03:10:48;;;;;;;4.13;3.72;;;8.80;99.90;;;;;;6158356;23;20032;-83
2022/10/08 03:13:17;;;;;;;7.55;5.70;;;8.70;99.90;;;;;;6134897;23;20017;-84
2022/10/08 03:15:47;;;;;;;4.68;4.28;;;8.60;99.90;;;;;;6159370;23;20040;-84
2022/10/08 03:18:16;;;;;;;5.00;4.60;;;8.50;99.90;;;;;;6170315;23;20009;-84
2022/10/08 03:20:49;;;;;;;9.18;8.20;;;8.50;99.90;;;;;;6159322;23;20025;-84
2022/10/08 03:23:17;;;;;;;11.00;5.90;;;8.50;99.90;;;;;;6191725;23;20032;-84
2022/10/08 03:25:45;;;;;;;7.72;5.82;;;8.40;99.90;;;;;;6160125;23;20364;-84
2022/10/08 03:28:12;;;;;;;6.32;5.32;;;8.30;99.90;;;;;;6182413;23;20325;-85
2022/10/08 03:30:40;;;;;;;6.13;5.50;;;8.30;99.90;;;;;;6196056;23;20021;-86
2022/10/08 03:33:07;;;;;;;6.13;5.53;;;8.30;99.90;;;;;;6183978;23;20449;-86
2022/10/08 03:35:46;;;;;;;7.85;5.43;;;8.20;99.90;;;;;;6190584;23;20017;-86
2022/10/08 03:38:14;;;;;;;5.57;4.55;;;8.20;99.90;;;;;;6195623;23;20016;-85
2022/10/08 03:40:58;;;;;;;4.35;4.05;;;8.20;99.90;;;;;;6185305;23;20478;-84
2022/10/08 03:43:58;;;;;;;4.68;4.28;;;8.10;99.90;;;;;;6147166;23;20038;-85
2022/10/08 03:46:40;;;;;;;5.38;4.90;;;8.10;99.90;;;;;;6150773;23;20024;-84
2022/10/08 03:49:26;;;;;;;5.03;4.60;;;8.10;99.90;;;;;;6136005;23;20040;-84
2022/10/08 03:52:29;;;;;;;27.37;9.17;;;8.10;99.90;;;;;;6160376;23;20024;-85
2022/10/08 03:55:18;;;;;;;13.68;6.20;;;8.00;99.90;;;;;;6157324;23;20087;-85
2022/10/08 03:58:05;;;;;;;5.18;4.72;;;8.00;99.90;;;;;;6159578;23;20070;-84
2022/10/08 04:01:16;;;;;;;4.60;4.20;;;7.90;99.90;;;;;;6151427;23;20021;-84
2022/10/08 04:03:51;;;;;;;5.45;4.97;;;7.80;99.90;;;;;;6189110;23;20032;-84
2022/10/08 04:06:39;;;;;;;4.13;3.83;;;7.90;99.90;;;;;;6139319;23;20025;-84
2022/10/08 04:09:17;;;;;;;4.40;4.07;;;7.80;99.90;;;;;;6175209;23;20036;-84
2022/10/08 04:11:55;;;;;;;4.28;3.88;;;7.90;99.90;;;;;;6158471;23;20028;-84
2022/10/08 04:14:30;;;;;;;5.53;4.82;;;8.00;99.90;;;;;;6136058;23;20028;-84
2022/10/08 04:17:14;;;;;;;5.15;4.65;;;8.00;99.90;;;;;;6135768;23;20025;-84
2022/10/08 04:19:45;;;;;;;5.10;4.70;;;8.00;99.90;;;;;;6158745;23;20024;-84
2022/10/08 04:22:25;;;;;;;4.10;3.78;;;8.00;99.90;;;;;;6136824;23;20013;-84
2022/10/08 04:25:04;;;;;;;6.35;5.82;;;7.90;99.90;;;;;;6147215;23;20025;-84
2022/10/08 04:27:41;;;;;;;5.18;4.70;;;8.00;99.90;;;;;;6114385;23;20017;-85
2022/10/08 04:30:29;;;;;;;3.73;3.47;;;8.10;99.90;;;;;;6160624;23;20024;-84
2022/10/08 04:33:31;;;;;;;4.60;4.22;;;8.10;99.90;;;;;;6135937;23;20032;-84
2022/10/08 04:36:43;;;;;;;5.25;4.75;;;8.10;99.90;;;;;;6103124;23;20029;-84
2022/10/08 04:39:16;;;;;;;7.68;5.13;;;8.10;99.90;;;;;;6088582;23;20025;-84
2022/10/08 04:41:49;;;;;;;4.65;4.25;;;8.20;99.90;;;;;;6079477;23;20017;-85
2022/10/08 04:44:44;;;;;;;4.20;3.90;;;8.20;99.90;;;;;;6107434;23;20169;-84
2022/10/08 04:47:30;;;;;;;3.97;3.67;;;8.30;99.90;;;;;;6062348;23;20393;-84
2022/10/08 04:50:04;;;;;;;4.93;4.53;;;8.40;99.90;;;;;;6090509;23;20017;-84
2022/10/08 04:52:42;;;;;;;5.10;4.70;;;8.30;99.90;;;;;;6149846;23;20337;-84
2022/10/08 04:55:25;;;;;;;5.63;5.22;;;8.30;99.90;;;;;;6126915;23;20024;-84
2022/10/08 04:58:07;;;;;;;8.77;4.00;;;8.30;99.90;;;;;;6132673;23;20021;-84
2022/10/08 05:00:41;;;;;;;5.18;4.68;;;8.30;99.90;;;;;;6079682;23;20353;-85
2022/10/08 05:03:31;;;;;;;4.40;4.05;;;8.30;99.90;;;;;;6104311;23;20026;-85
2022/10/08 05:06:35;;;;;;;4.90;4.50;;;8.30;99.90;;;;;;6080607;23;20014;-84
2022/10/08 05:09:15;;;;;;;5.03;4.63;;;8.40;99.90;;;;;;6135422;23;20021;-85
2022/10/08 05:11:57;;;;;;;5.07;4.57;;;8.40;99.90;;;;;;6158005;23;20028;-85
2022/10/08 05:15:11;;;;;;;5.68;5.18;;;8.40;99.90;;;;;;6117800;23;20017;-85
2022/10/08 05:18:11;;;;;;;5.05;4.65;;;8.50;99.90;;;;;;6120027;23;20025;-85
2022/10/08 05:21:08;;;;;;;6.03;5.55;;;8.50;99.90;;;;;;6124088;23;20028;-86
2022/10/08 05:24:22;;;;;;;4.90;4.50;;;8.60;99.90;;;;;;6109353;23;20028;-85
2022/10/08 05:27:05;;;;;;;4.43;4.03;;;8.60;99.90;;;;;;6154772;23;20310;-85
2022/10/08 05:30:11;;;;;;;5.03;4.60;;;8.60;99.90;;;;;;6137910;23;20017;-85
2022/10/08 05:33:27;;;;;;;5.03;4.53;;;8.60;99.90;;;;;;6102458;23;20022;-85
2022/10/08 05:36:35;;;;;;;8.75;5.80;;;8.70;99.90;;;;;;6050900;23;20450;-85
2022/10/08 05:39:41;;;;;;;4.68;4.28;;;8.80;99.90;;;;;;6002847;23;20026;-85
2022/10/08 05:42:33;;;;;;;4.72;4.32;;;8.80;99.90;;;;;;6065449;23;20334;-85
2022/10/08 05:45:13;;;;;;;4.40;4.00;;;8.90;99.90;;;;;;6119751;23;20028;-85
2022/10/08 05:48:43;;;;;;;4.53;4.22;;;9.00;99.90;;;;;;6095153;23;20033;-86
2022/10/08 05:52:01;;;;;;;;;;;;;;;;;;;;;
2022/10/08 05:54:56;;;;;;;8.48;5.47;;;9.00;99.90;;;;;;6091941;23;20018;-85
2022/10/08 05:57:37;;;;;;;4.13;3.83;;;9.10;99.90;;;;;;6097773;23;20024;-85
2022/10/08 06:05:01;;;;;;;5.07;4.68;;;9.30;99.90;;;;;;6119704;23;20434;-86
2022/10/08 06:08:07;;;;;;;7.10;4.80;;;9.40;99.90;;;;;;6018947;23;20347;-86
2022/10/08 06:11:04;;;;;;;4.90;4.38;;;9.60;99.90;;;;;;6041118;23;20018;-86
2022/10/08 06:29:21;;;;;;;;;;;;;;;;;;;;;
2022/10/08 07:38:23;;;;;;;5.50;5.00;;;11.40;99.90;;;;;;6097650;23;20026;-83
2022/10/08 07:40:52;;;;;;;7.38;5.18;;;11.50;99.90;;;;;;6097586;23;20038;-82
2022/10/08 07:43:20;;;;;;;6.15;4.55;;;11.60;99.90;;;;;;6102542;23;20015;-83
2022/10/08 07:45:48;;;;;;;7.10;4.28;;;11.80;99.90;;;;;;6106789;23;20338;-82
2022/10/08 07:48:18;;;;;;;6.45;5.25;;;12.00;99.90;;;;;;6074297;23;20033;-86
2022/10/08 07:50:46;;;;;;;7.10;6.47;;;12.30;99.90;;;;;;6070979;23;20023;-85
2022/10/08 07:53:13;;;;;;;6.50;5.07;;;12.50;99.90;;;;;;6106475;23;20037;-79
2022/10/08 07:55:41;;;;;;;5.78;4.85;;;12.70;99.90;;;;;;6102245;23;20453;-79
2022/10/08 07:58:08;;;;;;;3.60;3.40;;;12.90;99.90;;;;;;6079962;23;20333;-79
2022/10/08 08:00:40;;;;;;;5.43;4.35;;;13.00;99.90;;;;;;6098397;23;20026;-80
2022/10/08 08:03:13;;;;;;;5.15;4.55;;;13.30;99.90;;;;;;6103484;23;20025;-78
2022/10/08 08:05:40;;;;;;;5.90;5.30;;;13.40;99.90;;;;;;6105922;23;20022;-79
2022/10/08 08:08:08;;;;;;;6.13;5.50;;;13.60;99.90;;;;;;6099817;23;20038;-79
2022/10/08 08:10:35;;;;;;;9.60;5.93;;;13.70;99.90;;;;;;6105622;23;20025;-79
2022/10/08 08:13:02;;;;;;;6.18;4.70;;;13.80;99.90;;;;;;6095386;23;20026;-79
2022/10/08 08:15:30;;;;;;;5.32;4.68;;;14.10;99.90;;;;;;6101902;23;20030;-77
2022/10/08 08:17:57;;;;;;;5.85;5.00;;;14.30;99.90;;;;;;6103692;23;20455;-78
2022/10/08 08:20:24;;;;;;;11.30;5.63;;;14.40;99.90;;;;;;6098120;23;20022;-78
2022/10/08 08:22:52;;;;;;;6.15;4.90;;;14.60;99.90;;;;;;6103323;23;20343;-78
2022/10/08 08:25:19;;;;;;;4.57;4.22;;;14.70;99.90;;;;;;6106017;23;20018;-81
2022/10/08 08:27:46;;;;;;;8.80;4.22;;;14.70;99.90;;;;;;6068602;23;20037;-81
2022/10/08 08:30:14;;;;;;;7.57;4.53;;;14.90;99.90;;;;;;6105538;23;20014;-81
2022/10/08 08:32:41;;;;;;;6.68;5.65;;;15.10;99.90;;;;;;6096640;23;20026;-81
2022/10/08 08:35:08;;;;;;;4.78;3.70;;;15.20;99.90;;;;;;6103190;23;20026;-80
2022/10/08 08:37:36;;;;;;;4.55;4.15;;;15.40;99.90;;;;;;6098098;23;20019;-81
2022/10/08 08:40:03;;;;;;;5.38;3.85;;;15.50;99.90;;;;;;6098770;23;20026;-80
2022/10/08 08:42:32;;;;;;;7.47;5.43;;;15.60;99.90;;;;;;6103517;23;20017;-81
2022/10/08 08:45:03;;;;;;;11.85;5.30;;;15.60;99.90;;;;;;6095936;23;20018;-81
2022/10/08 08:47:33;;;;;;;6.40;4.25;;;15.70;99.90;;;;;;6101887;23;20026;-81
2022/10/08 08:50:23;;;;;;;5.43;4.32;;;15.60;99.90;;;;;;6105491;23;20022;-81
2022/10/08 09:17:47;;;;;;;4.75;4.25;;;16.30;99.90;;;;;;6014103;23;20610;-89
2022/10/08 09:20:32;;;;;;;4.72;4.18;;;16.30;99.90;;;;;;6047171;23;20413;-88
2022/10/08 09:23:14;;;;;;;6.28;4.45;;;16.30;99.90;;;;;;6023547;23;20029;-86
2022/10/08 09:25:47;;;;;;;5.53;4.90;;;16.20;99.90;;;;;;6021770;23;20029;-88
2022/10/08 09:28:39;;;;;;;6.30;5.50;;;16.30;99.90;;;;;;6045714;23;20037;-88
2022/10/08 09:31:46;;;;;;;5.00;4.30;;;16.30;99.90;;;;;;6070146;23;20029;-88
2022/10/08 09:34:26;;;;;;;6.05;5.45;;;16.30;99.90;;;;;;6000800;23;20019;-88
2022/10/08 09:37:42;;;;;;;7.75;3.80;;;16.30;99.90;;;;;;6047633;23;20030;-89
2022/10/08 09:40:26;;;;;;;5.47;4.28;;;16.40;99.90;;;;;;6053813;23;20023;-87
2022/10/08 09:43:13;;;;;;;7.60;5.68;;;16.50;99.90;;;;;;6031623;23;20025;-88
2022/10/08 09:45:53;;;;;;;4.47;4.07;;;16.60;99.90;;;;;;6047695;23;20018;-87
2022/10/08 09:48:50;;;;;;;5.60;5.13;;;16.80;99.90;;;;;;6051265;23;20025;-88
2022/10/08 09:51:23;;;;;;;5.78;5.28;;;17.00;99.90;;;;;;6012868;23;20020;-88
2022/10/08 09:54:16;;;;;;;14.10;4.32;;;17.00;99.90;;;;;;6073144;23;20023;-86
2022/10/08 09:57:17;;;;;;;23.77;5.82;;;16.90;99.90;;;;;;6057996;23;20034;-86
2022/10/08 10:00:06;;;;;;;7.07;5.55;;;16.90;99.90;;;;;;6025556;23;20026;-88
2022/10/08 10:03:10;;;;;;;6.32;4.68;;;17.00;99.90;;;;;;6055643;23;20022;-87
2022/10/08 10:05:48;;;;;;;5.15;4.35;;;17.10;99.90;;;;;;6073087;23;20026;-87
2022/10/08 10:08:52;;;;;;;5.78;3.83;;;17.20;99.90;;;;;;6024166;23;20022;-88
2022/10/08 10:11:38;;;;;;;6.88;4.78;;;17.30;99.90;;;;;;6047437;23;20018;-88
2022/10/08 10:15:17;;;;;;;10.88;5.40;;;17.40;99.90;;;;;;6049466;23;20014;-87
2022/10/08 10:18:07;;;;;;;7.65;3.08;;;17.50;99.90;;;;;;5994751;23;20024;-86
2022/10/08 10:21:06;;;;;;;8.38;5.22;;;17.30;99.90;;;;;;5927624;23;20024;-88
2022/10/08 10:23:53;;;;;;;4.30;3.70;;;17.50;99.90;;;;;;5954783;24;20040;-87
2022/10/08 10:26:43;;;;;;;4.70;3.67;;;17.40;99.90;;;;;;5957577;24;20149;-88
2022/10/08 10:29:33;;;;;;;11.70;5.45;;;17.40;99.90;;;;;;5975297;23;20333;-87
2022/10/08 10:32:38;;;;;;;15.55;4.93;;;17.40;99.90;;;;;;6012970;23;20023;-87
2022/10/08 10:35:39;;;;;;;6.05;3.67;;;17.40;99.90;;;;;;5978687;23;20027;-87
2022/10/08 10:38:41;;;;;;;6.75;4.07;;;17.40;99.90;;;;;;6004850;23;20022;-88
2022/10/08 10:41:43;;;;;;;;;;;;;;;;;;;;;
2022/10/08 10:44:30;;;;;;;3.72;2.85;;;17.20;99.90;;;;;;6013271;23;20031;-87
2022/10/08 10:47:03;;;;;;;13.30;4.57;;;17.20;99.90;;;;;;6006645;23;20751;-88
2022/10/08 10:49:41;;;;;;;6.30;4.03;;;17.30;99.90;;;;;;6046194;23;20018;-87
2022/10/08 10:52:43;;;;;;;3.65;3.35;;;17.30;99.90;;;;;;6049739;23;20022;-89
2022/10/08 10:55:43;;;;;;;6.22;4.10;;;17.30;99.90;;;;;;6031096;23;20355;-89
2022/10/08 10:59:04;;;;;;;6.35;4.07;;;17.30;99.90;;;;;;6047348;23;20022;-89
2022/10/08 11:02:11;;;;;;;6.57;5.13;;;17.30;99.90;;;;;;6080000;23;20034;-88
2022/10/08 11:05:00;;;;;;;5.53;4.07;;;17.20;99.90;;;;;;6042176;23;20502;-89
2022/10/08 11:07:49;;;;;;;8.75;5.93;;;17.10;99.90;;;;;;6028586;23;20027;-88
2022/10/08 11:10:20;;;;;;;5.20;4.47;;;17.10;99.90;;;;;;6043678;23;20019;-88
2022/10/08 11:13:26;;;;;;;;;;;;;;;;;;;;;
2022/10/08 11:16:52;;;;;;;12.60;5.78;;;17.10;99.90;;;;;;6053337;23;20019;-89
2022/10/08 11:20:02;;;;;;;14.05;5.22;;;17.20;99.90;;;;;;6069913;23;20037;-90
2022/10/08 11:22:54;;;;;;;6.13;5.50;;;17.20;99.90;;;;;;6068283;23;20015;-90
2022/10/08 11:25:47;;;;;;;5.05;4.55;;;17.30;99.90;;;;;;6057489;23;20030;-90
2022/10/08 11:28:53;;;;;;;9.30;6.15;;;17.50;99.90;;;;;;6096683;23;20026;-87
2022/10/08 11:31:33;;;;;;;6.13;4.65;;;17.30;99.90;;;;;;6100910;23;20025;-88
2022/10/08 11:34:12;;;;;;;6.43;4.07;;;17.30;99.90;;;;;;6071101;23;20027;-89
2022/10/08 11:37:02;;;;;;;8.43;4.90;;;17.40;99.90;;;;;;6070132;23;20022;-88
2022/10/08 11:39:35;;;;;;;4.55;3.63;;;17.20;99.90;;;;;;6069975;23;20478;-89
2022/10/08 11:42:48;;;;;;;7.78;3.80;;;17.10;99.90;;;;;;6078493;23;20032;-90
2022/10/08 11:46:54;;;;;;;7.20;5.30;;;17.10;99.90;;;;;;6083568;23;20021;-88
2022/10/08 11:49:55;;;;;;;4.35;3.47;;;17.10;99.90;;;;;;6080780;23;20022;-91
2022/10/08 11:52:30;;;;;;;5.32;3.50;;;17.00;99.90;;;;;;6109564;23;20469;-87
2022/10/08 11:55:15;;;;;;;7.05;4.57;;;16.90;99.90;;;;;;6046983;23;20034;-86
2022/10/08 11:57:54;;;;;;;12.27;4.68;;;16.70;99.90;;;;;;6095012;23;20023;-87
2022/10/08 12:00:50;;;;;;;6.22;3.75;;;16.60;99.90;;;;;;6047169;23;20019;-88
2022/10/08 12:03:46;;;;;;;11.27;5.05;;;16.50;99.90;;;;;;6091029;23;20035;-91
2022/10/08 12:07:28;;;;;;;5.88;5.40;;;16.50;99.90;;;;;;5976176;23;20019;-89
2022/10/08 12:10:56;;;;;;;22.27;5.18;;;16.30;99.90;;;;;;6040117;23;20026;-87
2022/10/08 12:14:03;;;;;;;12.88;4.85;;;16.10;99.90;;;;;;6034032;23;20027;-89
2022/10/08 12:16:47;;;;;;;11.75;5.95;;;16.00;99.90;;;;;;6086332;23;20048;-86
2022/10/08 12:19:36;;;;;;;17.95;5.13;;;16.00;99.90;;;;;;6042331;23;20359;-88
2022/10/08 12:22:23;;;;;;;13.38;4.63;;;15.90;99.90;;;;;;6047215;23;20042;-88
2022/10/08 12:25:24;;;;;;;5.18;4.78;;;15.90;99.90;;;;;;6050888;23;20030;-87
2022/10/08 12:28:36;;;;;;;10.77;3.47;;;15.80;99.90;;;;;;6070123;23;20033;-90
2022/10/08 12:31:32;;;;;;;11.25;4.30;;;15.80;99.90;;;;;;5974155;24;20024;-88
2022/10/08 12:51:25;;;;;;;;;;;;;;;;;;;;;
2022/10/08 13:05:17;;;;;;;;;;;;;;;;;;;;;
2022/10/08 13:17:27;;;;;;;15.48;6.68;;;15.20;99.90;;;;;;6205785;23;20024;-88
2022/10/08 13:26:37;;;;;;;8.15;3.97;;;15.10;99.90;;;;;;5987777;23;20035;-87
2022/10/08 13:29:22;;;;;;;7.15;6.50;;;15.20;99.90;;;;;;6211832;23;20025;-80
2022/10/08 13:31:55;;;;;;;6.68;4.75;;;15.10;99.90;;;;;;6218747;23;20479;-81
2022/10/08 13:34:25;;;;;;;5.55;5.05;;;15.10;99.90;;;;;;6224299;23;20063;-80
2022/10/08 13:36:59;;;;;;;11.88;6.10;;;15.10;99.90;;;;;;6214241;23;20044;-80
2022/10/08 13:39:33;;;;;;;9.90;4.75;;;15.10;99.90;;;;;;6220569;23;20028;-80
2022/10/08 13:42:04;;;;;;;9.73;5.55;;;15.00;99.90;;;;;;6223272;23;20016;-80
2022/10/08 13:44:32;;;;;;;9.90;5.55;;;15.10;99.90;;;;;;6215676;23;20021;-82
2022/10/08 13:47:01;;;;;;;10.63;7.22;;;14.90;99.90;;;;;;6222849;23;20008;-80
2022/10/08 13:49:32;;;;;;;5.57;4.40;;;15.00;99.90;;;;;;6214383;23;20387;-81
2022/10/08 13:52:00;;;;;;;12.55;5.72;;;14.90;99.90;;;;;;6215754;23;20028;-80
2022/10/08 13:54:30;;;;;;;10.18;6.15;;;14.90;99.90;;;;;;6224027;23;20016;-80
2022/10/08 13:56:58;;;;;;;15.63;7.85;;;14.90;99.90;;;;;;6213409;23;20024;-80
2022/10/08 13:59:26;;;;;;;11.90;5.63;;;14.90;99.90;;;;;;6193835;23;20679;-80
2022/10/08 14:01:57;;;;;;;7.97;6.32;;;14.90;99.90;;;;;;6224120;23;20016;-81
2022/10/08 14:04:24;;;;;;;9.68;6.25;;;14.90;99.90;;;;;;6216522;23;20021;-81
2022/10/08 14:06:57;;;;;;;19.85;7.97;;;14.80;99.90;;;;;;6223060;23;20013;-81
2022/10/08 14:09:27;;;;;;;7.28;6.20;;;14.80;99.90;;;;;;6224761;23;20432;-80
2022/10/08 14:11:58;;;;;;;7.63;6.78;;;14.70;99.90;;;;;;6217751;23;20020;-81
2022/10/08 14:14:26;;;;;;;15.18;5.05;;;14.70;99.90;;;;;;6223351;23;20340;-82
2022/10/08 14:16:53;;;;;;;8.23;7.25;;;14.70;99.90;;;;;;6214619;23;20028;-80
2022/10/08 14:19:21;;;;;;;10.30;5.47;;;14.70;99.90;;;;;;6220996;23;20017;-82
2022/10/08 14:21:51;;;;;;;6.38;5.78;;;14.70;99.90;;;;;;6223589;23;20652;-81
2022/10/08 14:24:18;;;;;;;9.18;6.55;;;14.60;99.90;;;;;;6216535;23;20031;-80
2022/10/08 14:26:46;;;;;;;10.77;6.30;;;14.60;99.90;;;;;;6222585;23;20019;-80
2022/10/08 14:29:13;;;;;;;10.60;7.07;;;14.50;99.90;;;;;;6223539;23;20020;-80
2022/10/08 14:31:41;;;;;;;10.32;7.45;;;14.60;99.90;;;;;;6218626;23;20024;-80
2022/10/08 14:34:08;;;;;;;8.82;6.90;;;14.50;99.90;;;;;;6223729;23;20023;-80
2022/10/08 14:36:38;;;;;;;8.93;7.40;;;14.50;99.90;;;;;;6215118;23;20035;-80
2022/10/08 14:39:06;;;;;;;11.60;7.28;;;14.50;99.90;;;;;;6222602;23;20622;-80
2022/10/08 14:41:33;;;;;;;12.10;7.35;;;14.50;99.90;;;;;;6225082;23;20024;-80
2022/10/08 14:44:01;;;;;;;15.95;6.95;;;14.50;99.90;;;;;;6219788;23;20035;-80
2022/10/08 14:46:28;;;;;;;9.57;6.50;;;14.50;99.90;;;;;;6225480;23;20031;-80
2022/10/08 14:48:55;;;;;;;14.75;8.90;;;14.40;99.90;;;;;;6216020;23;20017;-80
2022/10/08 14:51:23;;;;;;;9.35;7.72;;;14.40;99.90;;;;;;6221304;23;20012;-80
2022/10/08 14:53:51;;;;;;;11.73;8.23;;;14.40;99.90;;;;;;6224695;23;20020;-81
2022/10/08 14:56:19;;;;;;;7.97;7.10;;;14.50;99.90;;;;;;6218389;23;20660;-80
2022/10/08 14:58:49;;;;;;;8.30;6.88;;;14.40;99.90;;;;;;6225493;23;20020;-85
2022/10/08 15:01:16;;;;;;;17.20;10.03;;;14.40;99.90;;;;;;6199801;23;20021;-85
2022/10/08 15:03:44;;;;;;;7.10;6.47;;;14.30;99.90;;;;;;6188722;23;20018;-85
2022/10/08 15:06:15;;;;;;;10.00;8.93;;;14.20;99.90;;;;;;6199884;23;20020;-90
2022/10/08 15:08:42;;;;;;;10.05;8.05;;;14.10;99.90;;;;;;6163269;23;20463;-81
2022/10/08 15:11:10;;;;;;;13.32;7.22;;;14.10;99.90;;;;;;6196384;23;20020;-80
2022/10/08 15:13:37;;;;;;;10.73;8.23;;;14.00;99.90;;;;;;6189484;23;20018;-82
2022/10/08 15:16:10;;;;;;;12.13;8.65;;;14.00;99.90;;;;;;6217398;23;20028;-81
2022/10/08 15:18:38;;;;;;;12.88;9.18;;;13.90;99.90;;;;;;6222831;23;20060;-83
2022/10/08 15:21:06;;;;;;;11.95;8.85;;;13.80;99.90;;;;;;6187769;23;20024;-83
2022/10/08 15:23:33;;;;;;;9.10;8.18;;;13.80;99.90;;;;;;6222249;23;20348;-84
2022/10/08 15:26:04;;;;;;;13.95;8.35;;;13.70;99.90;;;;;;6199016;23;20429;-84
2022/10/08 15:28:35;;;;;;;10.77;8.18;;;13.60;99.90;;;;;;6217790;23;20475;-84
2022/10/08 15:31:14;;;;;;;7.18;5.93;;;13.50;99.90;;;;;;6224011;23;20019;-83
2022/10/08 15:33:50;;;;;;;10.75;6.97;;;13.50;99.90;;;;;;6226428;23;20009;-84
2022/10/08 15:36:29;;;;;;;7.43;6.68;;;13.40;99.90;;;;;;6218900;23;20032;-85
2022/10/08 15:38:59;;;;;;;9.75;5.90;;;13.30;99.90;;;;;;6198130;23;20009;-84
2022/10/08 15:41:29;;;;;;;8.27;7.20;;;13.30;99.90;;;;;;6199093;23;20013;-84
2022/10/08 15:44:08;;;;;;;10.18;6.60;;;13.30;99.90;;;;;;6193796;23;20020;-85
2022/10/08 15:46:36;;;;;;;9.45;6.70;;;13.20;99.90;;;;;;6226087;23;20019;-85
2022/10/08 15:49:04;;;;;;;11.45;7.13;;;13.00;99.90;;;;;;6215847;23;20021;-84
2022/10/08 15:51:32;;;;;;;7.90;6.25;;;13.00;99.90;;;;;;6194961;23;20448;-85
2022/10/08 15:54:00;;;;;;;8.73;6.93;;;13.00;99.90;;;;;;6199431;23;20024;-85
2022/10/08 15:56:28;;;;;;;11.50;7.05;;;13.00;99.90;;;;;;6217941;23;20098;-86
2022/10/08 15:58:57;;;;;;;9.43;7.38;;;13.00;99.90;;;;;;6197896;23;20028;-85
2022/10/08 16:01:26;;;;;;;11.15;8.20;;;12.90;99.90;;;;;;6198764;23;20017;-85
2022/10/08 16:03:54;;;;;;;8.57;7.70;;;12.80;99.90;;;;;;6220552;23;20023;-85
2022/10/08 16:06:24;;;;;;;12.57;8.02;;;12.90;99.90;;;;;;6225723;23;20027;-84
2022/10/08 16:08:54;;;;;;;15.63;7.60;;;12.80;99.90;;;;;;6216379;23;20032;-85
2022/10/08 16:11:25;;;;;;;12.48;9.15;;;12.80;99.90;;;;;;6188171;23;20490;-84
2022/10/08 16:14:02;;;;;;;11.32;8.68;;;12.80;99.90;;;;;;6199299;23;20016;-84
2022/10/08 16:16:29;;;;;;;10.70;7.80;;;12.80;99.90;;;;;;6188279;23;20021;-84
2022/10/08 16:18:59;;;;;;;11.55;8.38;;;12.70;99.90;;;;;;6224488;23;20574;-85
2022/10/08 16:21:29;;;;;;;10.75;8.13;;;12.80;99.90;;;;;;6224993;23;20023;-84
2022/10/08 16:23:57;;;;;;;17.27;9.55;;;12.70;99.90;;;;;;6220085;23;20067;-85
2022/10/08 16:26:26;;;;;;;14.02;8.18;;;12.70;99.90;;;;;;6225132;23;20617;-85
2022/10/08 16:28:58;;;;;;;11.60;8.50;;;12.70;99.90;;;;;;6188052;23;20035;-84
2022/10/08 16:31:28;;;;;;;15.02;10.52;;;12.70;99.90;;;;;;6221701;23;20028;-84
2022/10/08 16:34:01;;;;;;;10.95;8.25;;;12.70;99.90;;;;;;6225716;23;20013;-83
2022/10/08 16:36:35;;;;;;;11.95;8.30;;;12.60;99.90;;;;;;6166979;23;20012;-85
2022/10/08 16:39:04;;;;;;;12.23;8.32;;;12.60;99.90;;;;;;6188393;23;20016;-85